Time;durP1;ratioP1;P1;durP2;ratioP2;P2;SDS_P1;SDS_P2;PMS_P1;PMS_P2;Temp;Humidity;BMP_temperature;BMP_pressure;BME280_temperature;BME280_humidity;BME280_pressure;Samples;Min_cycle;Max_cycle;Signal;HPM_P1;HPM_P2
2023/01/16 00:00:24;;;;;;;2.97;2.67;;;;;;;;;;5079802;28;20568;-63
2023/01/16 00:02:52;;;;;;;7.07;2.93;;;;;;;;;;5079777;28;20214;-63
2023/01/16 00:05:20;;;;;;;4.73;2.40;;;;;;;;;;5079493;28;20251;-62
2023/01/16 00:07:48;;;;;;;5.40;3.47;;;;;;;;;;5077832;28;20275;-62
2023/01/16 00:10:17;;;;;;;3.47;2.77;;;;;;;;;;5079241;28;20222;-61
2023/01/16 00:12:47;;;;;;;4.33;3.40;;;;;;;;;;5079184;28;20229;-61
2023/01/16 00:15:16;;;;;;;5.77;3.23;;;;;;;;;;5079401;28;20206;-63
2023/01/16 00:17:45;;;;;;;3.50;2.90;;;;;;;;;;5078107;28;20236;-62
2023/01/16 00:20:13;;;;;;;3.57;2.60;;;;;;;;;;5079069;28;20677;-63
2023/01/16 00:22:41;;;;;;;6.77;2.80;;;;;;;;;;5079163;28;20230;-62
2023/01/16 00:25:09;;;;;;;6.27;2.43;;;;;;;;;;5079433;28;20210;-62
2023/01/16 00:27:37;;;;;;;3.30;2.63;;;;;;;;;;5079573;28;20202;-62
2023/01/16 00:30:06;;;;;;;4.50;3.17;;;;;;;;;;5079157;28;20638;-62
2023/01/16 00:32:34;;;;;;;3.60;2.77;;;;;;;;;;5079499;28;20217;-62
2023/01/16 00:35:04;;;;;;;5.53;2.53;;;;;;;;;;5078930;28;20263;-62
2023/01/16 00:37:32;;;;;;;7.67;2.70;;;;;;;;;;5079132;28;20704;-62
2023/01/16 00:40:00;;;;;;;5.40;2.47;;;;;;;;;;5079179;28;20221;-62
2023/01/16 00:42:28;;;;;;;5.50;3.30;;;;;;;;;;5078956;28;20194;-62
2023/01/16 00:44:56;;;;;;;3.33;2.47;;;;;;;;;;5078940;28;20665;-62
2023/01/16 00:47:23;;;;;;;5.30;2.70;;;;;;;;;;5079236;28;20213;-63
2023/01/16 00:49:51;;;;;;;3.63;2.63;;;;;;;;;;5078854;28;20213;-63
2023/01/16 00:52:22;;;;;;;2.87;2.50;;;;;;;;;;5078398;28;20313;-62
2023/01/16 00:54:50;;;;;;;3.20;2.67;;;;;;;;;;5078735;28;20213;-62
2023/01/16 00:57:18;;;;;;;3.87;2.50;;;;;;;;;;5078944;28;20206;-62
2023/01/16 00:59:45;;;;;;;4.37;2.73;;;;;;;;;;5078591;28;20241;-62
2023/01/16 01:02:14;;;;;;;6.13;2.70;;;;;;;;;;5078887;28;20233;-62
2023/01/16 01:04:42;;;;;;;3.00;2.60;;;;;;;;;;5078413;28;20206;-62
2023/01/16 01:07:10;;;;;;;5.13;2.47;;;;;;;;;;5078537;28;20233;-62
2023/01/16 01:09:40;;;;;;;2.70;2.27;;;;;;;;;;5078227;28;20206;-62
2023/01/16 01:12:08;;;;;;;3.73;2.33;;;;;;;;;;5078301;28;20265;-62
2023/01/16 01:14:36;;;;;;;2.93;2.53;;;;;;;;;;5078659;28;20262;-62
2023/01/16 01:17:04;;;;;;;2.37;2.17;;;;;;;;;;5078325;28;20618;-62
2023/01/16 01:19:32;;;;;;;2.87;2.40;;;;;;;;;;5078202;28;20213;-62
2023/01/16 01:22:00;;;;;;;2.80;2.30;;;;;;;;;;5078240;28;20198;-62
2023/01/16 01:24:28;;;;;;;2.87;2.07;;;;;;;;;;5077916;28;20233;-62
2023/01/16 01:26:57;;;;;;;4.17;2.17;;;;;;;;;;5078395;28;20213;-62
2023/01/16 01:29:25;;;;;;;2.27;1.90;;;;;;;;;;5078249;28;20202;-62
2023/01/16 01:31:53;;;;;;;5.80;2.10;;;;;;;;;;5077978;28;20747;-62
2023/01/16 01:34:21;;;;;;;2.50;2.30;;;;;;;;;;5077927;28;20233;-62
2023/01/16 01:36:49;;;;;;;2.73;2.23;;;;;;;;;;5078329;28;20206;-62
2023/01/16 01:39:17;;;;;;;3.27;1.90;;;;;;;;;;5077889;28;20269;-62
2023/01/16 01:41:45;;;;;;;2.40;2.20;;;;;;;;;;5077975;28;20689;-63
2023/01/16 01:44:31;;;;;;;2.20;2.00;;;;;;;;;;5077843;28;20222;-62
2023/01/16 01:47:01;;;;;;;4.23;2.37;;;;;;;;;;5077892;28;20580;-62
2023/01/16 01:49:31;;;;;;;5.23;2.23;;;;;;;;;;5077920;28;20209;-62
2023/01/16 01:52:01;;;;;;;3.77;2.10;;;;;;;;;;5078075;28;20261;-62
2023/01/16 01:54:31;;;;;;;5.20;2.30;;;;;;;;;;5077723;28;20262;-62
2023/01/16 01:57:01;;;;;;;4.47;2.37;;;;;;;;;;5077816;28;20343;-62
2023/01/16 01:59:31;;;;;;;5.17;2.30;;;;;;;;;;5077790;28;20693;-62
2023/01/16 02:02:02;;;;;;;2.63;2.20;;;;;;;;;;5077519;28;20207;-62
2023/01/16 02:04:33;;;;;;;4.53;2.50;;;;;;;;;;5077400;28;20218;-62
2023/01/16 02:07:02;;;;;;;5.33;2.80;;;;;;;;;;5078065;28;20239;-62
2023/01/16 02:09:30;;;;;;;4.23;2.83;;;;;;;;;;5077360;28;20978;-62
2023/01/16 02:12:00;;;;;;;3.03;2.70;;;;;;;;;;5077545;28;20233;-62
2023/01/16 02:14:29;;;;;;;3.30;2.90;;;;;;;;;;5077731;28;20230;-62
2023/01/16 02:19:49;;;;;;;2.90;2.43;;;;;;;;;;5077384;28;20721;-62
2023/01/16 02:22:38;;;;;;;2.93;2.30;;;;;;;;;;5077679;28;20241;-62
2023/01/16 02:25:18;;;;;;;7.03;3.17;;;;;;;;;;5077703;28;20221;-62
2023/01/16 02:27:56;;;;;;;3.77;2.27;;;;;;;;;;5077522;28;20212;-62
2023/01/16 02:30:31;;;;;;;7.90;3.67;;;;;;;;;;5077712;28;20240;-62
2023/01/16 02:33:04;;;;;;;4.00;2.60;;;;;;;;;;5077581;28;20233;-62
2023/01/16 02:35:45;;;;;;;5.80;3.40;;;;;;;;;;5077237;28;20272;-62
2023/01/16 02:38:20;;;;;;;4.27;2.40;;;;;;;;;;5077150;28;20625;-62
2023/01/16 02:40:52;;;;;;;5.13;3.20;;;;;;;;;;5077609;28;20398;-62
2023/01/16 02:43:27;;;;;;;3.87;2.73;;;;;;;;;;5077445;28;20229;-62
2023/01/16 02:46:01;;;;;;;3.90;2.10;;;;;;;;;;5077772;28;20206;-62
2023/01/16 02:48:35;;;;;;;5.40;2.23;;;;;;;;;;5077522;28;20259;-62
2023/01/16 02:51:04;;;;;;;3.97;2.87;;;;;;;;;;5077197;28;20872;-62
2023/01/16 02:53:35;;;;;;;2.70;2.50;;;;;;;;;;5076904;28;20993;-62
2023/01/16 02:56:08;;;;;;;3.50;3.00;;;;;;;;;;5077330;28;20445;-62
2023/01/16 02:58:39;;;;;;;5.23;2.70;;;;;;;;;;5077392;28;21007;-62
2023/01/16 03:01:08;;;;;;;2.50;2.30;;;;;;;;;;5077173;28;20535;-62
2023/01/16 03:03:40;;;;;;;4.77;2.60;;;;;;;;;;5077018;28;20882;-62
2023/01/16 03:06:17;;;;;;;3.10;2.13;;;;;;;;;;5077183;28;20240;-62
2023/01/16 03:08:50;;;;;;;3.57;2.57;;;;;;;;;;5077467;28;20472;-62
2023/01/16 03:11:23;;;;;;;5.50;2.77;;;;;;;;;;5077340;28;20470;-62
2023/01/16 03:13:54;;;;;;;4.73;2.63;;;;;;;;;;5077732;28;20578;-62
2023/01/16 03:16:26;;;;;;;3.17;2.20;;;;;;;;;;5081083;28;20459;-62
2023/01/16 03:19:00;;;;;;;1.70;1.50;;;;;;;;;;5080607;28;20454;-62
2023/01/16 03:21:41;;;;;;;3.33;1.43;;;;;;;;;;5080544;28;20454;-62
2023/01/16 03:24:14;;;;;;;2.57;1.83;;;;;;;;;;5080457;28;20470;-62
2023/01/16 03:26:43;;;;;;;8.43;2.17;;;;;;;;;;5080736;28;20452;-62
2023/01/16 03:29:15;;;;;;;3.60;1.83;;;;;;;;;;5080484;28;20468;-62
2023/01/16 03:31:48;;;;;;;2.60;1.70;;;;;;;;;;5080566;28;20476;-62
2023/01/16 03:34:21;;;;;;;2.63;2.00;;;;;;;;;;5080139;28;20847;-62
2023/01/16 03:36:51;;;;;;;1.97;1.77;;;;;;;;;;5080324;28;20490;-62
2023/01/16 03:39:21;;;;;;;3.67;1.70;;;;;;;;;;5080538;28;21029;-62
2023/01/16 03:41:51;;;;;;;2.20;2.00;;;;;;;;;;5080390;28;20472;-62
2023/01/16 03:44:25;;;;;;;2.27;1.80;;;;;;;;;;5080433;28;20468;-62
2023/01/16 03:46:53;;;;;;;3.03;2.00;;;;;;;;;;5080187;28;20924;-62
2023/01/16 03:49:25;;;;;;;1.80;1.70;;;;;;;;;;5079971;28;20810;-62
2023/01/16 03:51:55;;;;;;;1.57;1.53;;;;;;;;;;5080321;28;20447;-62
2023/01/16 03:54:28;;;;;;;5.10;1.83;;;;;;;;;;5079936;28;20513;-62
2023/01/16 03:57:00;;;;;;;3.10;2.00;;;;;;;;;;5080250;28;20483;-62
2023/01/16 03:59:28;;;;;;;3.17;1.80;;;;;;;;;;5080126;28;20472;-62
2023/01/16 04:01:57;;;;;;;3.73;1.90;;;;;;;;;;5080142;28;20445;-62
2023/01/16 04:04:28;;;;;;;5.53;1.63;;;;;;;;;;5079772;28;20461;-62
2023/01/16 04:06:59;;;;;;;1.50;1.33;;;;;;;;;;5079846;28;20467;-62
2023/01/16 04:09:30;;;;;;;1.53;1.40;;;;;;;;;;5079454;28;20936;-62
2023/01/16 04:11:59;;;;;;;2.00;1.60;;;;;;;;;;5079913;28;20476;-62
2023/01/16 04:14:28;;;;;;;1.73;1.63;;;;;;;;;;5079804;28;20467;-62
2023/01/16 04:16:56;;;;;;;1.83;1.47;;;;;;;;;;5080027;28;20452;-62
2023/01/16 04:19:26;;;;;;;2.13;1.90;;;;;;;;;;5079396;28;20488;-62
2023/01/16 04:21:55;;;;;;;3.73;1.57;;;;;;;;;;5079445;28;20441;-62
2023/01/16 04:24:24;;;;;;;2.10;1.57;;;;;;;;;;5079319;28;20464;-62
2023/01/16 04:26:52;;;;;;;2.23;1.30;;;;;;;;;;5078788;28;20449;-62
2023/01/16 04:29:20;;;;;;;2.20;1.40;;;;;;;;;;5079607;28;20447;-62
2023/01/16 04:31:48;;;;;;;1.50;1.37;;;;;;;;;;5079217;28;20448;-62
2023/01/16 04:34:16;;;;;;;2.83;1.30;;;;;;;;;;5079076;28;20495;-62
2023/01/16 04:36:44;;;;;;;1.07;1.03;;;;;;;;;;5079161;28;20807;-62
2023/01/16 04:39:14;;;;;;;2.83;1.60;;;;;;;;;;5079110;28;20452;-62
2023/01/16 04:41:41;;;;;;;3.27;1.23;;;;;;;;;;5079221;28;20479;-62
2023/01/16 04:44:10;;;;;;;2.77;1.17;;;;;;;;;;5079016;28;20460;-62
2023/01/16 04:46:38;;;;;;;1.23;1.10;;;;;;;;;;5078967;28;20471;-62
2023/01/16 04:49:07;;;;;;;3.17;1.27;;;;;;;;;;5078672;28;20448;-62
2023/01/16 04:51:35;;;;;;;1.20;1.10;;;;;;;;;;5078348;28;20983;-62
2023/01/16 04:54:03;;;;;;;1.93;1.30;;;;;;;;;;5078748;28;20510;-62
2023/01/16 04:56:33;;;;;;;2.20;1.30;;;;;;;;;;5072018;28;20470;-62
2023/01/16 04:59:01;;;;;;;3.60;1.43;;;;;;;;;;5072036;28;20456;-62
2023/01/16 05:01:34;;;;;;;2.73;1.37;;;;;;;;;;5068385;28;20476;-62
2023/01/16 05:04:03;;;;;;;3.40;1.50;;;;;;;;;;5077459;28;20487;-62
2023/01/16 05:06:31;;;;;;;2.17;1.50;;;;;;;;;;5072006;28;20522;-62
2023/01/16 05:08:59;;;;;;;1.50;1.20;;;;;;;;;;5074510;28;20437;-62
2023/01/16 05:11:27;;;;;;;1.27;1.07;;;;;;;;;;5068534;28;20479;-62
2023/01/16 05:13:57;;;;;;;2.73;1.70;;;;;;;;;;5073908;28;20571;-62
2023/01/16 05:16:25;;;;;;;4.77;1.53;;;;;;;;;;5066704;28;20430;-62
2023/01/16 05:18:53;;;;;;;1.90;1.40;;;;;;;;;;5076027;28;20464;-62
2023/01/16 05:21:21;;;;;;;4.23;1.73;;;;;;;;;;5071956;28;20433;-62
2023/01/16 05:23:49;;;;;;;1.40;1.10;;;;;;;;;;5074119;28;20457;-62
2023/01/16 05:26:17;;;;;;;3.50;1.50;;;;;;;;;;5072091;28;20440;-62
2023/01/16 05:28:45;;;;;;;3.43;1.20;;;;;;;;;;5069870;28;21206;-62
2023/01/16 05:31:14;;;;;;;2.60;1.30;;;;;;;;;;5075788;28;21062;-61
2023/01/16 05:33:42;;;;;;;3.10;1.13;;;;;;;;;;5078013;28;20495;-62
2023/01/16 05:36:10;;;;;;;2.03;1.27;;;;;;;;;;5078271;28;20446;-62
2023/01/16 05:38:38;;;;;;;2.97;1.20;;;;;;;;;;5077827;28;20472;-62
2023/01/16 05:41:06;;;;;;;4.70;1.30;;;;;;;;;;5078247;28;20444;-62
2023/01/16 05:43:34;;;;;;;3.10;1.30;;;;;;;;;;5077791;28;20457;-62
2023/01/16 05:46:03;;;;;;;2.33;1.33;;;;;;;;;;5077978;28;20472;-62
2023/01/16 05:48:32;;;;;;;1.10;1.10;;;;;;;;;;5077622;28;20464;-62
2023/01/16 05:51:01;;;;;;;3.43;1.00;;;;;;;;;;5077730;28;20879;-62
2023/01/16 05:53:30;;;;;;;1.43;1.13;;;;;;;;;;5077468;28;20567;-62
2023/01/16 05:55:59;;;;;;;2.10;1.10;;;;;;;;;;5077753;28;20943;-62
2023/01/16 05:58:27;;;;;;;1.20;0.97;;;;;;;;;;5077840;28;20539;-62
2023/01/16 06:00:55;;;;;;;1.50;1.13;;;;;;;;;;5077874;28;20470;-62
2023/01/16 06:03:23;;;;;;;2.60;1.00;;;;;;;;;;5077535;28;20974;-62
2023/01/16 06:05:52;;;;;;;1.83;1.10;;;;;;;;;;5077751;28;20446;-61
2023/01/16 06:08:20;;;;;;;2.87;0.80;;;;;;;;;;5077710;28;20483;-61
2023/01/16 06:10:49;;;;;;;3.07;1.30;;;;;;;;;;5077816;28;20475;-61
2023/01/16 06:13:17;;;;;;;0.97;0.97;;;;;;;;;;5077457;28;20846;-62
2023/01/16 06:15:45;;;;;;;1.30;1.07;;;;;;;;;;5077541;28;20494;-61
2023/01/16 06:18:14;;;;;;;3.30;1.10;;;;;;;;;;5077600;28;20476;-61
2023/01/16 06:20:42;;;;;;;4.43;1.00;;;;;;;;;;5077343;28;20539;-61
2023/01/16 06:23:11;;;;;;;1.83;1.17;;;;;;;;;;5077391;28;20507;-62
2023/01/16 06:25:40;;;;;;;2.03;1.03;;;;;;;;;;5077397;28;20810;-63
2023/01/16 06:28:08;;;;;;;1.13;0.80;;;;;;;;;;5077711;28;20448;-62
2023/01/16 06:30:36;;;;;;;1.43;0.97;;;;;;;;;;5077340;28;20468;-63
2023/01/16 06:33:04;;;;;;;0.80;0.80;;;;;;;;;;5077264;28;20956;-63
2023/01/16 06:35:32;;;;;;;3.80;1.13;;;;;;;;;;5077028;28;20511;-63
2023/01/16 06:38:00;;;;;;;4.53;2.00;;;;;;;;;;5073658;28;20551;-63
2023/01/16 06:40:29;;;;;;;2.87;1.23;;;;;;;;;;5077241;28;20661;-63
2023/01/16 06:42:57;;;;;;;2.43;1.37;;;;;;;;;;5076518;28;20630;-62
2023/01/16 06:45:25;;;;;;;2.03;0.87;;;;;;;;;;5076957;28;20201;-63
2023/01/16 06:47:53;;;;;;;2.37;1.10;;;;;;;;;;5076759;28;21030;-63
2023/01/16 06:50:21;;;;;;;1.93;1.10;;;;;;;;;;5080284;28;20464;-63
2023/01/16 06:52:50;;;;;;;1.00;1.00;;;;;;;;;;5080748;28;20547;-63
2023/01/16 06:55:17;;;;;;;1.90;1.20;;;;;;;;;;5080755;28;20472;-63
2023/01/16 06:57:48;;;;;;;1.63;1.17;;;;;;;;;;5080976;28;20471;-63
2023/01/16 07:00:16;;;;;;;1.90;0.90;;;;;;;;;;5081197;28;20432;-63
2023/01/16 07:02:44;;;;;;;1.90;1.13;;;;;;;;;;5080527;28;20468;-63
2023/01/16 07:05:13;;;;;;;1.37;0.70;;;;;;;;;;5080773;28;20440;-63
2023/01/16 07:07:40;;;;;;;1.33;1.07;;;;;;;;;;5080222;28;20444;-63
2023/01/16 07:10:09;;;;;;;2.60;0.97;;;;;;;;;;5080328;28;20872;-63
2023/01/16 07:12:37;;;;;;;2.67;0.80;;;;;;;;;;5080696;28;20468;-63
2023/01/16 07:23:25;;;;;;;1.60;0.87;;;;;;;;;;5080114;28;20464;-63
2023/01/16 07:25:54;;;;;;;0.97;0.90;;;;;;;;;;5080762;28;20480;-63
2023/01/16 07:28:22;;;;;;;3.57;0.80;;;;;;;;;;5080725;28;20455;-63
2023/01/16 07:30:51;;;;;;;2.33;0.80;;;;;;;;;;5080672;28;20455;-63
2023/01/16 07:33:19;;;;;;;1.90;1.10;;;;;;;;;;5080394;28;20511;-63
2023/01/16 07:35:47;;;;;;;0.87;0.87;;;;;;;;;;5080464;28;20480;-63
2023/01/16 07:38:15;;;;;;;0.70;0.70;;;;;;;;;;5079963;28;20472;-63
2023/01/16 07:40:43;;;;;;;1.33;1.23;;;;;;;;;;5080312;28;20450;-63
2023/01/16 07:43:11;;;;;;;1.10;0.97;;;;;;;;;;5080258;28;20460;-63
2023/01/16 07:45:39;;;;;;;1.77;1.20;;;;;;;;;;5080439;28;20494;-63
2023/01/16 07:48:09;;;;;;;1.57;1.30;;;;;;;;;;5080017;28;20448;-63
2023/01/16 07:50:37;;;;;;;5.87;2.10;;;;;;;;;;5080204;28;20472;-63
2023/01/16 07:53:05;;;;;;;1.93;1.10;;;;;;;;;;5079632;28;20544;-63
2023/01/16 07:55:33;;;;;;;1.93;1.00;;;;;;;;;;5080194;28;20530;-63
2023/01/16 07:58:01;;;;;;;2.10;1.10;;;;;;;;;;5079902;28;21011;-63
2023/01/16 08:00:29;;;;;;;1.50;1.07;;;;;;;;;;5078867;28;20448;-63
2023/01/16 08:02:59;;;;;;;1.27;1.13;;;;;;;;;;5079652;28;20488;-63
2023/01/16 08:05:28;;;;;;;1.37;1.10;;;;;;;;;;5079635;28;20521;-63
2023/01/16 08:07:56;;;;;;;1.37;0.90;;;;;;;;;;5079476;28;20878;-63
2023/01/16 08:10:24;;;;;;;1.10;1.00;;;;;;;;;;5079709;28;20484;-63
2023/01/16 08:12:52;;;;;;;1.80;1.30;;;;;;;;;;5079608;28;20460;-63
2023/01/16 08:15:20;;;;;;;2.57;1.40;;;;;;;;;;5079491;28;20567;-63
2023/01/16 08:17:48;;;;;;;1.60;1.03;;;;;;;;;;5079698;28;20441;-63
2023/01/16 08:20:16;;;;;;;1.50;1.20;;;;;;;;;;5079470;28;20483;-63
2023/01/16 08:22:46;;;;;;;1.10;1.10;;;;;;;;;;5079342;28;20466;-63
2023/01/16 08:25:14;;;;;;;0.83;0.83;;;;;;;;;;5079618;28;20477;-63
2023/01/16 08:27:42;;;;;;;1.00;1.00;;;;;;;;;;5079316;28;20536;-63
2023/01/16 08:30:11;;;;;;;2.30;1.30;;;;;;;;;;5079446;28;20448;-62
2023/01/16 08:32:39;;;;;;;0.83;0.83;;;;;;;;;;5079333;28;20460;-63
2023/01/16 08:35:08;;;;;;;1.13;1.03;;;;;;;;;;5078772;28;20508;-63
2023/01/16 08:37:36;;;;;;;1.37;1.23;;;;;;;;;;5078835;28;20826;-63
2023/01/16 08:40:06;;;;;;;1.27;1.00;;;;;;;;;;5079352;28;20496;-63
2023/01/16 08:53:35;;;;;;;1.40;1.30;;;;;;;;;;5078810;28;20509;-63
2023/01/16 08:56:05;;;;;;;2.93;1.10;;;;;;;;;;5078649;28;20519;-63
2023/01/16 08:58:33;;;;;;;1.10;0.97;;;;;;;;;;5078823;28;20441;-63
2023/01/16 09:01:01;;;;;;;1.40;1.23;;;;;;;;;;5078630;28;20492;-63
2023/01/16 09:03:29;;;;;;;2.37;1.07;;;;;;;;;;5078764;28;20460;-63
2023/01/16 09:05:57;;;;;;;2.40;1.03;;;;;;;;;;5078381;28;20453;-63
2023/01/16 09:08:25;;;;;;;3.70;1.50;;;;;;;;;;5078452;28;20472;-63
2023/01/16 09:13:52;;;;;;;0.80;0.80;;;;;;;;;;5076138;28;20452;-63
2023/01/16 09:16:21;;;;;;;1.10;1.00;;;;;;;;;;5077959;28;20839;-63
2023/01/16 09:18:49;;;;;;;1.60;0.90;;;;;;;;;;5078238;28;20465;-61
2023/01/16 09:21:19;;;;;;;0.80;0.80;;;;;;;;;;5066958;28;20459;-62
2023/01/16 09:23:47;;;;;;;3.50;1.10;;;;;;;;;;5077734;28;20515;-64
2023/01/16 09:26:15;;;;;;;2.10;1.30;;;;;;;;;;5078456;28;20440;-63
2023/01/16 09:28:44;;;;;;;1.30;1.00;;;;;;;;;;5078358;28;20210;-64
2023/01/16 09:31:12;;;;;;;1.37;0.90;;;;;;;;;;5078186;28;20225;-63
2023/01/16 09:33:41;;;;;;;2.20;0.90;;;;;;;;;;5077975;28;20324;-63
2023/01/16 09:36:09;;;;;;;3.00;1.03;;;;;;;;;;5077669;28;20481;-64
2023/01/16 09:38:37;;;;;;;1.50;0.83;;;;;;;;;;5077412;28;20202;-64
2023/01/16 09:41:06;;;;;;;1.10;1.00;;;;;;;;;;5077916;28;20198;-64
2023/01/16 09:43:40;;;;;;;1.10;1.00;;;;;;;;;;5076918;28;20225;-64
2023/01/16 09:46:15;;;;;;;3.03;0.70;;;;;;;;;;5076081;28;20193;-64
2023/01/16 09:48:47;;;;;;;1.80;1.70;;;;;;;;;;5077542;28;20265;-64
2023/01/16 09:51:17;;;;;;;2.50;1.37;;;;;;;;;;5075361;28;20637;-64
2023/01/16 09:59:25;;;;;;;1.13;1.00;;;;;;;;;;5077552;28;20243;-64
2023/01/16 10:01:57;;;;;;;1.33;1.23;;;;;;;;;;5075261;28;20198;-64
2023/01/16 10:04:26;;;;;;;2.50;0.90;;;;;;;;;;5077282;28;20222;-63
2023/01/16 10:07:01;;;;;;;1.37;1.30;;;;;;;;;;5075270;28;20198;-63
2023/01/16 10:09:33;;;;;;;3.10;1.57;;;;;;;;;;5077019;28;20704;-63
2023/01/16 10:12:03;;;;;;;1.53;1.40;;;;;;;;;;5077262;28;20194;-64
2023/01/16 10:14:55;;;;;;;3.53;1.70;;;;;;;;;;5077075;28;20623;-64
2023/01/16 10:17:32;;;;;;;3.20;1.33;;;;;;;;;;5071751;28;20198;-64
2023/01/16 10:20:17;;;;;;;1.80;1.27;;;;;;;;;;5075696;28;20233;-64
2023/01/16 10:22:52;;;;;;;1.43;0.80;;;;;;;;;;5076312;28;20226;-64
2023/01/16 10:25:23;;;;;;;1.70;1.13;;;;;;;;;;5080478;28;20203;-64
2023/01/16 10:27:59;;;;;;;0.97;0.77;;;;;;;;;;5078869;28;20222;-64
2023/01/16 10:30:30;;;;;;;2.27;1.03;;;;;;;;;;5081099;28;20653;-64
2023/01/16 10:33:03;;;;;;;3.23;1.43;;;;;;;;;;5081244;28;20218;-64
2023/01/16 10:35:33;;;;;;;1.57;1.17;;;;;;;;;;5080551;28;20238;-64
2023/01/16 10:38:07;;;;;;;1.60;1.00;;;;;;;;;;5081163;28;20202;-64
2023/01/16 10:40:35;;;;;;;1.73;1.00;;;;;;;;;;5078997;28;20221;-64
2023/01/16 10:51:34;;;;;;;3.37;1.30;;;;;;;;;;5080749;28;20266;-64
2023/01/16 10:54:02;;;;;;;1.10;0.83;;;;;;;;;;5079898;28;20250;-61
2023/01/16 10:56:32;;;;;;;2.53;1.03;;;;;;;;;;5080653;28;20221;-62
2023/01/16 10:59:00;;;;;;;4.87;2.57;;;;;;;;;;5080658;28;20213;-63
2023/01/16 11:01:28;;;;;;;1.20;1.17;;;;;;;;;;5081085;28;20582;-62
2023/01/16 11:03:59;;;;;;;2.10;1.30;;;;;;;;;;5080795;28;20275;-63
2023/01/16 11:06:28;;;;;;;1.17;1.07;;;;;;;;;;5080712;28;20206;-63
2023/01/16 11:09:00;;;;;;;1.40;1.00;;;;;;;;;;5080736;28;20296;-61
2023/01/16 11:20:13;;;;;;;3.23;1.40;;;;;;;;;;5080014;28;20202;-62
2023/01/16 11:22:41;;;;;;;0.97;0.90;;;;;;;;;;5078958;28;20230;-62
2023/01/16 11:25:17;;;;;;;3.50;1.50;;;;;;;;;;5079949;28;20226;-60
2023/01/16 11:27:46;;;;;;;4.13;1.67;;;;;;;;;;5080787;28;20202;-61
2023/01/16 11:30:18;;;;;;;2.80;1.40;;;;;;;;;;5080653;28;20220;-60
2023/01/16 11:32:48;;;;;;;2.53;1.33;;;;;;;;;;5080506;28;20229;-60
2023/01/16 11:35:18;;;;;;;5.43;1.23;;;;;;;;;;5079776;28;20237;-61
2023/01/16 11:37:50;;;;;;;1.20;1.10;;;;;;;;;;5079946;28;20225;-61
2023/01/16 11:40:19;;;;;;;1.60;1.00;;;;;;;;;;5080178;28;20198;-60
2023/01/16 11:46:03;;;;;;;1.63;0.83;;;;;;;;;;5068564;28;20745;-61
2023/01/16 11:48:38;;;;;;;1.57;1.30;;;;;;;;;;5080330;28;20259;-61
2023/01/16 11:51:11;;;;;;;1.63;1.40;;;;;;;;;;5079874;28;20672;-61
2023/01/16 11:53:39;;;;;;;1.50;1.13;;;;;;;;;;5080020;28;20232;-61
2023/01/16 11:56:15;;;;;;;2.47;1.17;;;;;;;;;;5079866;28;20715;-61
2023/01/16 11:58:47;;;;;;;0.80;0.80;;;;;;;;;;5080000;28;20251;-61
2023/01/16 12:01:21;;;;;;;1.73;0.90;;;;;;;;;;5079697;28;20206;-61
2023/01/16 12:04:03;;;;;;;1.67;1.20;;;;;;;;;;5079700;28;20253;-61
2023/01/16 12:06:38;;;;;;;1.00;1.00;;;;;;;;;;5080019;28;20289;-61
2023/01/16 12:09:12;;;;;;;0.67;0.60;;;;;;;;;;5079663;28;20208;-61
2023/01/16 12:11:46;;;;;;;1.13;0.80;;;;;;;;;;5079681;28;20206;-62
2023/01/16 12:14:17;;;;;;;0.60;0.60;;;;;;;;;;5079554;28;20693;-61
2023/01/16 12:16:58;;;;;;;1.07;0.63;;;;;;;;;;5079564;28;20237;-61
2023/01/16 12:19:40;;;;;;;1.13;1.03;;;;;;;;;;5079412;28;20656;-61
2023/01/16 12:22:16;;;;;;;2.53;0.87;;;;;;;;;;5079148;28;20225;-61
2023/01/16 12:24:45;;;;;;;0.60;0.60;;;;;;;;;;5079719;28;20235;-61
2023/01/16 12:27:22;;;;;;;0.37;0.37;;;;;;;;;;5079369;28;20199;-61
2023/01/16 12:29:58;;;;;;;0.77;0.50;;;;;;;;;;5079312;28;20206;-61
2023/01/16 12:32:38;;;;;;;0.70;0.70;;;;;;;;;;5079491;28;20205;-61
2023/01/16 12:35:11;;;;;;;0.50;0.50;;;;;;;;;;5078866;28;20244;-61
2023/01/16 12:37:45;;;;;;;0.60;0.50;;;;;;;;;;5078886;28;20225;-61
2023/01/16 12:40:26;;;;;;;1.33;0.40;;;;;;;;;;5079058;28;20205;-61
2023/01/16 12:45:45;;;;;;;0.43;0.30;;;;;;;;;;5079280;28;20230;-61
2023/01/16 12:48:19;;;;;;;0.50;0.50;;;;;;;;;;5078681;28;20209;-61
2023/01/16 12:50:53;;;;;;;0.90;0.60;;;;;;;;;;5079045;28;20210;-61
2023/01/16 12:53:33;;;;;;;1.07;0.73;;;;;;;;;;5078777;28;20226;-61
2023/01/16 12:56:05;;;;;;;2.20;0.93;;;;;;;;;;5079061;28;20232;-62
2023/01/16 12:58:36;;;;;;;1.20;0.80;;;;;;;;;;5078946;28;20394;-62
2023/01/16 13:01:10;;;;;;;3.37;1.20;;;;;;;;;;5078741;28;20289;-61
2023/01/16 13:03:41;;;;;;;1.20;0.67;;;;;;;;;;5078699;28;20275;-61
2023/01/16 13:06:11;;;;;;;0.80;0.80;;;;;;;;;;5078835;28;20213;-61
2023/01/16 13:08:43;;;;;;;1.07;0.70;;;;;;;;;;5078573;28;20209;-62
2023/01/16 13:14:01;;;;;;;0.97;0.60;;;;;;;;;;5078383;28;20232;-61
2023/01/16 13:16:32;;;;;;;0.60;0.60;;;;;;;;;;5078657;28;20206;-61
2023/01/16 13:19:03;;;;;;;0.60;0.60;;;;;;;;;;5078243;28;20570;-61
2023/01/16 13:21:35;;;;;;;1.40;0.50;;;;;;;;;;5078360;28;20272;-62
2023/01/16 13:24:10;;;;;;;0.70;0.70;;;;;;;;;;5078016;28;20230;-61
2023/01/16 13:26:39;;;;;;;0.40;0.40;;;;;;;;;;5078300;28;20202;-61
2023/01/16 13:29:12;;;;;;;0.57;0.57;;;;;;;;;;5078141;28;20637;-61
2023/01/16 13:31:41;;;;;;;0.87;0.60;;;;;;;;;;5078367;28;20210;-61
2023/01/16 13:34:14;;;;;;;0.93;0.93;;;;;;;;;;5077796;28;20242;-61
2023/01/16 13:36:50;;;;;;;1.20;1.10;;;;;;;;;;5077902;28;20253;-61
2023/01/16 13:39:33;;;;;;;1.67;0.57;;;;;;;;;;5077898;28;20245;-62
2023/01/16 13:42:03;;;;;;;0.90;0.90;;;;;;;;;;5077000;28;20202;-61
2023/01/16 13:47:22;;;;;;;0.60;0.60;;;;;;;;;;5078200;28;20202;-62
2023/01/16 13:49:52;;;;;;;1.13;1.00;;;;;;;;;;5077762;28;20691;-62
2023/01/16 13:52:21;;;;;;;0.50;0.50;;;;;;;;;;5077629;28;20234;-62
2023/01/16 13:54:51;;;;;;;0.70;0.70;;;;;;;;;;5077780;28;20259;-61
2023/01/16 13:57:21;;;;;;;0.93;0.87;;;;;;;;;;5078054;28;20304;-62
2023/01/16 13:59:50;;;;;;;1.10;0.80;;;;;;;;;;5078013;28;20206;-61
2023/01/16 14:02:38;;;;;;;0.90;0.90;;;;;;;;;;5077936;28;20213;-62
2023/01/16 14:05:18;;;;;;;0.60;0.60;;;;;;;;;;5067403;28;20248;-61
2023/01/16 14:10:39;;;;;;;1.70;1.30;;;;;;;;;;5077611;28;20260;-61
2023/01/16 14:13:22;;;;;;;1.50;1.40;;;;;;;;;;5077840;28;20244;-62
2023/01/16 14:18:38;;;;;;;2.77;1.00;;;;;;;;;;5077707;28;20226;-61
2023/01/16 14:21:10;;;;;;;0.90;0.80;;;;;;;;;;5077683;28;20233;-61
2023/01/16 14:26:34;;;;;;;0.40;0.40;;;;;;;;;;5077564;28;20230;-61
2023/01/16 14:29:06;;;;;;;0.70;0.70;;;;;;;;;;5077746;28;20245;-61
2023/01/16 14:31:38;;;;;;;0.70;0.70;;;;;;;;;;5077728;28;20216;-62
2023/01/16 14:34:06;;;;;;;6.10;3.63;;;;;;;;;;5077129;28;20279;-61
2023/01/16 14:36:34;;;;;;;3.77;2.47;;;;;;;;;;5077369;28;20565;-61
2023/01/16 14:39:02;;;;;;;2.53;1.33;;;;;;;;;;5077091;28;20252;-61
2023/01/16 14:55:48;;;;;;;6.00;3.17;;;;;;;;;;5077181;28;20550;-62
2023/01/16 14:58:20;;;;;;;3.43;1.20;;;;;;;;;;5077132;28;20284;-61
2023/01/16 15:00:51;;;;;;;2.57;1.53;;;;;;;;;;5077312;28;20213;-61
2023/01/16 15:03:23;;;;;;;5.43;2.23;;;;;;;;;;5077368;28;20284;-61
2023/01/16 15:05:53;;;;;;;1.50;0.97;;;;;;;;;;5077306;28;20263;-61
2023/01/16 15:08:24;;;;;;;1.53;1.10;;;;;;;;;;5077090;28;20203;-61
2023/01/16 15:10:53;;;;;;;4.70;2.90;;;;;;;;;;5079523;28;20210;-61
2023/01/16 15:13:23;;;;;;;2.50;2.10;;;;;;;;;;5080760;28;20230;-61
2023/01/16 15:15:54;;;;;;;10.23;4.70;;;;;;;;;;5081021;28;20296;-62
2023/01/16 15:24:03;;;;;;;1.87;1.23;;;;;;;;;;5062894;28;20309;-61
2023/01/16 15:26:38;;;;;;;1.50;0.80;;;;;;;;;;5080553;28;20269;-61
2023/01/16 15:29:12;;;;;;;0.87;0.87;;;;;;;;;;5080805;28;20210;-61
2023/01/16 15:31:42;;;;;;;1.20;0.80;;;;;;;;;;5080674;28;20210;-62
2023/01/16 15:34:19;;;;;;;3.03;1.70;;;;;;;;;;5080313;28;20242;-61
2023/01/16 15:36:49;;;;;;;1.50;1.10;;;;;;;;;;5080491;28;20218;-61
2023/01/16 15:39:22;;;;;;;0.97;0.97;;;;;;;;;;5080183;28;21176;-61
2023/01/16 15:47:47;;;;;;;1.93;1.83;;;;;;;;;;5080494;28;20202;-62
2023/01/16 15:50:28;;;;;;;2.07;1.87;;;;;;;;;;5080202;28;20221;-61
2023/01/16 15:52:58;;;;;;;2.37;1.50;;;;;;;;;;5080039;28;20287;-61
2023/01/16 15:55:27;;;;;;;1.63;1.50;;;;;;;;;;5080049;28;20210;-61
2023/01/16 15:57:57;;;;;;;1.10;1.00;;;;;;;;;;5080101;28;20206;-62
2023/01/16 16:00:26;;;;;;;1.10;1.00;;;;;;;;;;5079799;28;20732;-61
2023/01/16 16:02:58;;;;;;;33.30;7.33;;;;;;;;;;5079664;28;20222;-62
2023/01/16 16:05:28;;;;;;;57.10;11.07;;;;;;;;;;5079990;28;20210;-61
2023/01/16 16:07:57;;;;;;;33.17;7.90;;;;;;;;;;5079740;28;20580;-61
2023/01/16 16:13:13;;;;;;;20.40;4.37;;;;;;;;;;5079840;28;20226;-61
2023/01/16 16:18:38;;;;;;;2.27;1.03;;;;;;;;;;5079486;28;20807;-62
2023/01/16 16:21:12;;;;;;;4.27;1.67;;;;;;;;;;5078844;28;20245;-61
2023/01/16 16:23:41;;;;;;;0.77;0.77;;;;;;;;;;5079355;28;20237;-61
2023/01/16 16:26:14;;;;;;;1.60;1.00;;;;;;;;;;5079501;28;20206;-61
2023/01/16 16:28:42;;;;;;;1.03;1.03;;;;;;;;;;5079257;28;20553;-61
2023/01/16 16:31:13;;;;;;;1.33;0.90;;;;;;;;;;5079329;28;20244;-60
2023/01/16 16:33:42;;;;;;;2.33;0.93;;;;;;;;;;5079024;28;20337;-60
2023/01/16 16:36:16;;;;;;;1.00;0.97;;;;;;;;;;5079448;28;20260;-60
2023/01/16 16:38:47;;;;;;;0.97;0.90;;;;;;;;;;5079168;28;20236;-61
2023/01/16 16:44:34;;;;;;;1.50;1.00;;;;;;;;;;5075820;28;20693;-61